This is the latest recevied weather packets stored in our database for station/object EB1BCG-1. If no packets are shown the sender has not sent any weather packets the latest 10 day(s).
| Time | Temp. | Humidity | Pressure | Rain* | Wind** | Luminosity | Snow |
|---|---|---|---|---|---|---|---|
| 1777292970 | 27.22° C | 42% | 1016.1 hPa | 0 mm | 0 m/s | - | - |
| 1777292362 | 26.67° C | 41% | 1016.3 hPa | 0 mm | 0 m/s | - | - |
| 1777291755 | 27.78° C | 41% | 1016.4 hPa | 0 mm | 0 m/s | - | - |
| 1777291150 | 26.67° C | 44% | 1016.6 hPa | 0 mm | 0 m/s | - | - |
| 1777290540 | 26.67° C | 45% | 1016.9 hPa | 0 mm | 0 m/s | - | - |
| 1777288718 | 22.22° C | 50% | 1017.5 hPa | 0 mm | 0 m/s | - | - |
| 1777288112 | 23.33° C | 53% | 1017.6 hPa | 0 mm | 0 m/s | - | - |
| 1777287503 | 22.78° C | 59% | 1017.7 hPa | 0 mm | 0 m/s | - | - |
| 1777286895 | 21.67° C | 59% | 1017.9 hPa | 0 mm | 0 m/s | - | - |
| 1777286292 | 19.44° C | 61% | 1018 hPa | 0 mm | 0 m/s | - | - |
| 1777285681 | 19.44° C | 61% | 1018.2 hPa | 0 mm | 0 m/s | - | - |
| 1777285074 | 19.44° C | 61% | 1018.2 hPa | 0 mm | 0 m/s | - | - |
| 1777284467 | 18.89° C | 63% | 1018.3 hPa | 0 mm | 0 m/s | - | - |
| 1777283860 | 18.89° C | 64% | 1018.4 hPa | 0 mm | 0 m/s | - | - |
| 1777283253 | 18.89° C | 69% | 1018.5 hPa | 0 mm | 0 m/s | - | - |
| 1777282645 | 18.33° C | 69% | 1018.5 hPa | 0 mm | 0 m/s | - | - |
| 1777282038 | 17.78° C | 72% | 1018.5 hPa | 0 mm | 0 m/s | - | - |
| 1777281431 | 17.22° C | 73% | 1018.6 hPa | 0 mm | 0 m/s | - | - |
| 1777280823 | 17.22° C | 75% | 1018.6 hPa | 0 mm | 0 m/s | - | - |
| 1777280216 | 16.67° C | 78% | 1018.5 hPa | 0 mm | 0 m/s | - | - |
| 1777279611 | 16.67° C | 75% | 1018.6 hPa | 0 mm | 0 m/s | - | - |
| 1777279002 | 16.67° C | 78% | 1018.6 hPa | 0 mm | 0 m/s | - | - |
| 1777278395 | 16.67° C | 78% | 1018.6 hPa | 0 mm | 0 m/s | - | - |
| 1777277791 | 16.11° C | 79% | 1018.6 hPa | 0 mm | 0 m/s | - | - |
| 1777277181 | 15.56° C | 85% | 1018.6 hPa | 0 mm | 0 m/s | - | - |
* Rain latest hour (hover to see other rain measurements)
** Current wind speed in m/s (hover to see current wind gust speed)